sensor_id;sensor_type;location;lat;lon;timestamp;P1;durP1;ratioP1;P2;durP2;ratioP2
78686;SDS011;68002;52.310;6.990;2023-09-08T00:00:59;5.00;;;4.05;;
78686;SDS011;68002;52.310;6.990;2023-09-08T00:03:24;5.63;;;4.07;;
78686;SDS011;68002;52.310;6.990;2023-09-08T00:05:49;6.47;;;3.97;;
78686;SDS011;68002;52.310;6.990;2023-09-08T00:08:14;6.43;;;3.92;;
78686;SDS011;68002;52.310;6.990;2023-09-08T00:10:39;6.28;;;4.05;;
78686;SDS011;68002;52.310;6.990;2023-09-08T00:13:05;5.78;;;4.30;;
78686;SDS011;68002;52.310;6.990;2023-09-08T00:15:30;5.37;;;3.90;;
78686;SDS011;68002;52.310;6.990;2023-09-08T00:17:55;5.45;;;3.67;;
78686;SDS011;68002;52.310;6.990;2023-09-08T00:20:20;5.65;;;4.03;;
78686;SDS011;68002;52.310;6.990;2023-09-08T00:22:45;5.50;;;4.35;;
78686;SDS011;68002;52.310;6.990;2023-09-08T00:25:10;5.60;;;4.13;;
78686;SDS011;68002;52.310;6.990;2023-09-08T00:27:35;6.25;;;4.30;;
78686;SDS011;68002;52.310;6.990;2023-09-08T00:30:00;4.88;;;3.97;;
78686;SDS011;68002;52.310;6.990;2023-09-08T00:32:25;7.22;;;4.53;;
78686;SDS011;68002;52.310;6.990;2023-09-08T00:34:51;5.45;;;3.65;;
78686;SDS011;68002;52.310;6.990;2023-09-08T00:37:16;5.20;;;3.60;;
78686;SDS011;68002;52.310;6.990;2023-09-08T00:39:41;4.63;;;3.70;;
78686;SDS011;68002;52.310;6.990;2023-09-08T00:42:06;5.05;;;3.47;;
78686;SDS011;68002;52.310;6.990;2023-09-08T00:44:31;5.60;;;4.53;;
78686;SDS011;68002;52.310;6.990;2023-09-08T00:46:56;5.72;;;4.13;;
78686;SDS011;68002;52.310;6.990;2023-09-08T00:49:21;5.47;;;4.35;;
78686;SDS011;68002;52.310;6.990;2023-09-08T00:51:47;6.40;;;3.47;;
78686;SDS011;68002;52.310;6.990;2023-09-08T00:54:12;6.87;;;4.27;;
78686;SDS011;68002;52.310;6.990;2023-09-08T00:56:37;5.60;;;3.50;;
78686;SDS011;68002;52.310;6.990;2023-09-08T00:59:03;6.03;;;3.70;;
78686;SDS011;68002;52.310;6.990;2023-09-08T01:01:28;5.00;;;3.75;;
78686;SDS011;68002;52.310;6.990;2023-09-08T01:03:54;5.10;;;3.60;;
78686;SDS011;68002;52.310;6.990;2023-09-08T01:06:19;6.38;;;4.00;;
78686;SDS011;68002;52.310;6.990;2023-09-08T01:08:44;4.83;;;3.53;;
78686;SDS011;68002;52.310;6.990;2023-09-08T01:11:09;5.38;;;3.85;;
78686;SDS011;68002;52.310;6.990;2023-09-08T01:13:35;5.30;;;4.25;;
78686;SDS011;68002;52.310;6.990;2023-09-08T01:16:00;6.65;;;4.38;;
78686;SDS011;68002;52.310;6.990;2023-09-08T01:18:25;5.07;;;3.78;;
78686;SDS011;68002;52.310;6.990;2023-09-08T01:21:02;8.02;;;4.18;;
78686;SDS011;68002;52.310;6.990;2023-09-08T01:23:50;6.20;;;4.68;;
78686;SDS011;68002;52.310;6.990;2023-09-08T01:26:21;6.70;;;3.78;;
78686;SDS011;68002;52.310;6.990;2023-09-08T01:28:47;6.35;;;4.55;;
78686;SDS011;68002;52.310;6.990;2023-09-08T01:31:13;6.65;;;4.68;;
78686;SDS011;68002;52.310;6.990;2023-09-08T01:33:40;5.97;;;3.95;;
78686;SDS011;68002;52.310;6.990;2023-09-08T01:36:05;6.93;;;4.53;;
78686;SDS011;68002;52.310;6.990;2023-09-08T01:38:30;5.70;;;3.67;;
78686;SDS011;68002;52.310;6.990;2023-09-08T01:40:55;5.38;;;4.22;;
78686;SDS011;68002;52.310;6.990;2023-09-08T01:43:21;5.13;;;3.60;;
78686;SDS011;68002;52.310;6.990;2023-09-08T01:45:46;6.15;;;4.20;;
78686;SDS011;68002;52.310;6.990;2023-09-08T01:48:11;6.72;;;4.35;;
78686;SDS011;68002;52.310;6.990;2023-09-08T01:50:36;5.80;;;3.90;;
78686;SDS011;68002;52.310;6.990;2023-09-08T01:53:01;6.97;;;4.57;;
78686;SDS011;68002;52.310;6.990;2023-09-08T01:55:26;6.03;;;4.57;;
78686;SDS011;68002;52.310;6.990;2023-09-08T01:57:51;5.38;;;4.03;;
78686;SDS011;68002;52.310;6.990;2023-09-08T02:00:17;5.32;;;3.60;;
78686;SDS011;68002;52.310;6.990;2023-09-08T02:02:42;6.20;;;4.75;;
78686;SDS011;68002;52.310;6.990;2023-09-08T02:05:07;5.20;;;3.90;;
78686;SDS011;68002;52.310;6.990;2023-09-08T02:07:32;7.03;;;4.27;;
78686;SDS011;68002;52.310;6.990;2023-09-08T02:09:57;6.47;;;4.53;;
78686;SDS011;68002;52.310;6.990;2023-09-08T02:12:22;5.30;;;3.58;;
78686;SDS011;68002;52.310;6.990;2023-09-08T02:14:47;6.85;;;4.75;;
78686;SDS011;68002;52.310;6.990;2023-09-08T02:17:13;7.38;;;4.78;;
78686;SDS011;68002;52.310;6.990;2023-09-08T02:19:38;5.05;;;3.97;;
78686;SDS011;68002;52.310;6.990;2023-09-08T02:22:03;6.35;;;3.78;;
78686;SDS011;68002;52.310;6.990;2023-09-08T02:24:28;6.10;;;4.47;;
78686;SDS011;68002;52.310;6.990;2023-09-08T02:26:53;7.90;;;5.45;;
78686;SDS011;68002;52.310;6.990;2023-09-08T02:29:18;6.90;;;4.40;;
78686;SDS011;68002;52.310;6.990;2023-09-08T02:31:44;5.30;;;3.95;;
78686;SDS011;68002;52.310;6.990;2023-09-08T02:34:09;7.40;;;4.23;;
78686;SDS011;68002;52.310;6.990;2023-09-08T02:36:34;5.18;;;3.47;;
78686;SDS011;68002;52.310;6.990;2023-09-08T02:38:59;7.13;;;4.55;;
78686;SDS011;68002;52.310;6.990;2023-09-08T02:41:24;6.85;;;4.28;;
78686;SDS011;68002;52.310;6.990;2023-09-08T02:43:49;4.60;;;4.03;;
78686;SDS011;68002;52.310;6.990;2023-09-08T02:46:15;6.33;;;4.10;;
78686;SDS011;68002;52.310;6.990;2023-09-08T02:48:40;5.63;;;3.87;;
78686;SDS011;68002;52.310;6.990;2023-09-08T02:51:05;5.50;;;3.77;;
78686;SDS011;68002;52.310;6.990;2023-09-08T02:53:30;6.78;;;4.30;;
78686;SDS011;68002;52.310;6.990;2023-09-08T02:55:56;5.97;;;4.00;;
78686;SDS011;68002;52.310;6.990;2023-09-08T02:58:21;5.90;;;4.15;;
78686;SDS011;68002;52.310;6.990;2023-09-08T03:00:46;6.70;;;4.77;;
78686;SDS011;68002;52.310;6.990;2023-09-08T03:03:11;6.53;;;4.72;;
78686;SDS011;68002;52.310;6.990;2023-09-08T03:05:37;7.73;;;5.20;;
78686;SDS011;68002;52.310;6.990;2023-09-08T03:08:02;7.38;;;5.20;;
78686;SDS011;68002;52.310;6.990;2023-09-08T03:10:27;8.23;;;4.80;;
78686;SDS011;68002;52.310;6.990;2023-09-08T03:12:52;5.97;;;4.43;;
78686;SDS011;68002;52.310;6.990;2023-09-08T03:15:17;7.57;;;4.07;;
78686;SDS011;68002;52.310;6.990;2023-09-08T03:17:42;8.05;;;5.57;;
78686;SDS011;68002;52.310;6.990;2023-09-08T03:20:09;7.25;;;5.30;;
78686;SDS011;68002;52.310;6.990;2023-09-08T03:22:34;7.82;;;5.28;;
78686;SDS011;68002;52.310;6.990;2023-09-08T03:24:59;8.73;;;6.03;;
78686;SDS011;68002;52.310;6.990;2023-09-08T03:27:25;8.00;;;5.30;;
78686;SDS011;68002;52.310;6.990;2023-09-08T03:29:50;8.52;;;6.28;;
78686;SDS011;68002;52.310;6.990;2023-09-08T03:32:15;7.93;;;5.05;;
78686;SDS011;68002;52.310;6.990;2023-09-08T03:34:40;7.90;;;5.03;;
78686;SDS011;68002;52.310;6.990;2023-09-08T03:37:05;7.32;;;5.35;;
78686;SDS011;68002;52.310;6.990;2023-09-08T03:39:30;6.60;;;5.03;;
78686;SDS011;68002;52.310;6.990;2023-09-08T03:41:55;6.40;;;4.88;;
78686;SDS011;68002;52.310;6.990;2023-09-08T03:44:20;6.57;;;4.95;;
78686;SDS011;68002;52.310;6.990;2023-09-08T03:46:45;6.70;;;4.65;;
78686;SDS011;68002;52.310;6.990;2023-09-08T03:49:11;5.97;;;4.32;;
78686;SDS011;68002;52.310;6.990;2023-09-08T03:51:36;6.63;;;4.43;;
78686;SDS011;68002;52.310;6.990;2023-09-08T03:54:01;6.50;;;4.22;;
78686;SDS011;68002;52.310;6.990;2023-09-08T03:56:26;6.20;;;4.75;;
78686;SDS011;68002;52.310;6.990;2023-09-08T03:58:51;7.30;;;5.22;;
78686;SDS011;68002;52.310;6.990;2023-09-08T04:01:16;8.00;;;5.65;;
78686;SDS011;68002;52.310;6.990;2023-09-08T04:03:41;8.02;;;5.85;;
78686;SDS011;68002;52.310;6.990;2023-09-08T04:06:06;10.15;;;5.88;;
78686;SDS011;68002;52.310;6.990;2023-09-08T04:08:31;8.07;;;5.65;;
78686;SDS011;68002;52.310;6.990;2023-09-08T04:10:57;9.02;;;6.05;;
78686;SDS011;68002;52.310;6.990;2023-09-08T04:13:22;8.65;;;6.78;;
78686;SDS011;68002;52.310;6.990;2023-09-08T04:15:47;8.18;;;6.40;;
78686;SDS011;68002;52.310;6.990;2023-09-08T04:18:12;7.47;;;5.93;;
78686;SDS011;68002;52.310;6.990;2023-09-08T04:20:37;7.45;;;5.53;;
78686;SDS011;68002;52.310;6.990;2023-09-08T04:23:02;11.18;;;7.25;;
78686;SDS011;68002;52.310;6.990;2023-09-08T04:25:27;9.67;;;6.00;;
78686;SDS011;68002;52.310;6.990;2023-09-08T04:27:52;11.10;;;7.43;;
78686;SDS011;68002;52.310;6.990;2023-09-08T04:30:18;9.30;;;6.55;;
78686;SDS011;68002;52.310;6.990;2023-09-08T04:32:43;8.63;;;5.83;;
78686;SDS011;68002;52.310;6.990;2023-09-08T04:35:08;7.78;;;5.85;;
78686;SDS011;68002;52.310;6.990;2023-09-08T04:37:33;8.88;;;6.03;;
78686;SDS011;68002;52.310;6.990;2023-09-08T04:39:58;8.73;;;6.45;;
78686;SDS011;68002;52.310;6.990;2023-09-08T04:42:23;8.88;;;6.55;;
78686;SDS011;68002;52.310;6.990;2023-09-08T04:44:48;8.67;;;5.97;;
78686;SDS011;68002;52.310;6.990;2023-09-08T04:47:14;9.00;;;6.40;;
78686;SDS011;68002;52.310;6.990;2023-09-08T04:49:39;8.43;;;5.72;;
78686;SDS011;68002;52.310;6.990;2023-09-08T04:52:04;8.10;;;6.15;;
78686;SDS011;68002;52.310;6.990;2023-09-08T04:54:29;9.82;;;6.82;;
78686;SDS011;68002;52.310;6.990;2023-09-08T04:56:54;10.55;;;7.50;;
78686;SDS011;68002;52.310;6.990;2023-09-08T04:59:19;10.30;;;7.28;;
78686;SDS011;68002;52.310;6.990;2023-09-08T05:01:45;8.73;;;5.97;;
78686;SDS011;68002;52.310;6.990;2023-09-08T05:04:11;10.27;;;7.00;;
78686;SDS011;68002;52.310;6.990;2023-09-08T05:06:36;9.98;;;6.25;;
78686;SDS011;68002;52.310;6.990;2023-09-08T05:09:01;10.45;;;6.53;;
78686;SDS011;68002;52.310;6.990;2023-09-08T05:11:26;10.50;;;6.80;;
78686;SDS011;68002;52.310;6.990;2023-09-08T05:13:52;9.40;;;6.73;;
78686;SDS011;68002;52.310;6.990;2023-09-08T05:16:17;9.10;;;6.00;;
78686;SDS011;68002;52.310;6.990;2023-09-08T05:18:42;9.27;;;6.25;;
78686;SDS011;68002;52.310;6.990;2023-09-08T05:21:07;9.35;;;6.75;;
78686;SDS011;68002;52.310;6.990;2023-09-08T05:23:32;7.93;;;5.43;;
78686;SDS011;68002;52.310;6.990;2023-09-08T05:25:57;8.40;;;5.87;;
78686;SDS011;68002;52.310;6.990;2023-09-08T05:28:22;11.27;;;6.53;;
78686;SDS011;68002;52.310;6.990;2023-09-08T05:30:50;8.05;;;5.30;;
78686;SDS011;68002;52.310;6.990;2023-09-08T05:33:15;8.30;;;6.60;;
78686;SDS011;68002;52.310;6.990;2023-09-08T05:35:41;8.85;;;6.57;;
78686;SDS011;68002;52.310;6.990;2023-09-08T05:38:06;7.47;;;5.90;;
78686;SDS011;68002;52.310;6.990;2023-09-08T05:40:31;7.90;;;5.18;;
78686;SDS011;68002;52.310;6.990;2023-09-08T05:42:56;7.35;;;6.18;;
78686;SDS011;68002;52.310;6.990;2023-09-08T05:45:22;7.30;;;5.60;;
78686;SDS011;68002;52.310;6.990;2023-09-08T05:47:47;8.65;;;6.25;;
78686;SDS011;68002;52.310;6.990;2023-09-08T05:50:12;8.27;;;5.83;;
78686;SDS011;68002;52.310;6.990;2023-09-08T05:52:37;7.25;;;5.53;;
78686;SDS011;68002;52.310;6.990;2023-09-08T05:55:02;8.07;;;5.70;;
78686;SDS011;68002;52.310;6.990;2023-09-08T05:57:27;6.80;;;4.60;;
78686;SDS011;68002;52.310;6.990;2023-09-08T05:59:53;8.18;;;5.80;;
78686;SDS011;68002;52.310;6.990;2023-09-08T06:02:18;7.55;;;5.13;;
78686;SDS011;68002;52.310;6.990;2023-09-08T06:04:43;6.90;;;4.87;;
78686;SDS011;68002;52.310;6.990;2023-09-08T06:07:08;7.30;;;5.05;;
78686;SDS011;68002;52.310;6.990;2023-09-08T06:09:33;7.50;;;6.50;;
78686;SDS011;68002;52.310;6.990;2023-09-08T06:11:58;6.43;;;5.38;;
78686;SDS011;68002;52.310;6.990;2023-09-08T06:14:23;6.28;;;4.95;;
78686;SDS011;68002;52.310;6.990;2023-09-08T06:16:48;7.93;;;5.63;;
78686;SDS011;68002;52.310;6.990;2023-09-08T06:19:14;7.25;;;5.65;;
78686;SDS011;68002;52.310;6.990;2023-09-08T06:21:39;8.40;;;5.68;;
78686;SDS011;68002;52.310;6.990;2023-09-08T06:24:04;7.93;;;5.05;;
78686;SDS011;68002;52.310;6.990;2023-09-08T06:26:29;6.73;;;5.87;;
78686;SDS011;68002;52.310;6.990;2023-09-08T06:28:54;8.70;;;6.33;;
78686;SDS011;68002;52.310;6.990;2023-09-08T06:31:19;10.07;;;6.75;;
78686;SDS011;68002;52.310;6.990;2023-09-08T06:33:44;8.13;;;5.80;;
78686;SDS011;68002;52.310;6.990;2023-09-08T06:36:09;8.35;;;5.65;;
78686;SDS011;68002;52.310;6.990;2023-09-08T06:38:35;8.00;;;6.22;;
78686;SDS011;68002;52.310;6.990;2023-09-08T06:41:00;8.45;;;5.72;;
78686;SDS011;68002;52.310;6.990;2023-09-08T06:43:25;7.47;;;5.90;;
78686;SDS011;68002;52.310;6.990;2023-09-08T06:45:50;9.10;;;7.18;;
78686;SDS011;68002;52.310;6.990;2023-09-08T06:48:15;7.32;;;5.45;;
78686;SDS011;68002;52.310;6.990;2023-09-08T06:50:40;9.48;;;6.53;;
78686;SDS011;68002;52.310;6.990;2023-09-08T06:53:06;8.10;;;6.00;;
78686;SDS011;68002;52.310;6.990;2023-09-08T06:55:31;6.60;;;5.30;;
78686;SDS011;68002;52.310;6.990;2023-09-08T06:57:56;7.47;;;5.72;;
78686;SDS011;68002;52.310;6.990;2023-09-08T07:00:21;7.18;;;5.10;;
78686;SDS011;68002;52.310;6.990;2023-09-08T07:02:46;6.82;;;5.55;;
78686;SDS011;68002;52.310;6.990;2023-09-08T07:05:11;9.77;;;5.68;;
78686;SDS011;68002;52.310;6.990;2023-09-08T07:07:37;7.72;;;5.95;;
78686;SDS011;68002;52.310;6.990;2023-09-08T07:10:02;7.27;;;4.93;;
78686;SDS011;68002;52.310;6.990;2023-09-08T07:12:28;9.10;;;5.22;;
78686;SDS011;68002;52.310;6.990;2023-09-08T07:14:53;5.80;;;5.03;;
78686;SDS011;68002;52.310;6.990;2023-09-08T07:17:18;6.63;;;5.57;;
78686;SDS011;68002;52.310;6.990;2023-09-08T07:19:43;6.85;;;5.32;;
78686;SDS011;68002;52.310;6.990;2023-09-08T07:22:08;6.80;;;6.05;;
78686;SDS011;68002;52.310;6.990;2023-09-08T07:24:33;6.93;;;4.85;;
78686;SDS011;68002;52.310;6.990;2023-09-08T07:26:58;8.05;;;5.07;;
78686;SDS011;68002;52.310;6.990;2023-09-08T07:29:23;7.35;;;5.78;;
78686;SDS011;68002;52.310;6.990;2023-09-08T07:31:49;9.93;;;5.45;;
78686;SDS011;68002;52.310;6.990;2023-09-08T07:34:14;7.07;;;4.72;;
78686;SDS011;68002;52.310;6.990;2023-09-08T07:36:39;6.45;;;4.82;;
78686;SDS011;68002;52.310;6.990;2023-09-08T07:39:04;6.70;;;4.88;;
78686;SDS011;68002;52.310;6.990;2023-09-08T07:41:29;7.18;;;4.10;;
78686;SDS011;68002;52.310;6.990;2023-09-08T07:43:54;6.05;;;5.10;;
78686;SDS011;68002;52.310;6.990;2023-09-08T07:46:19;6.50;;;5.03;;
78686;SDS011;68002;52.310;6.990;2023-09-08T07:48:44;7.73;;;4.77;;
78686;SDS011;68002;52.310;6.990;2023-09-08T07:51:09;5.85;;;4.53;;
78686;SDS011;68002;52.310;6.990;2023-09-08T07:53:35;6.68;;;5.05;;
78686;SDS011;68002;52.310;6.990;2023-09-08T07:56:00;5.18;;;4.28;;
78686;SDS011;68002;52.310;6.990;2023-09-08T07:58:25;7.40;;;4.68;;
78686;SDS011;68002;52.310;6.990;2023-09-08T08:00:50;5.40;;;4.13;;
78686;SDS011;68002;52.310;6.990;2023-09-08T08:03:15;5.35;;;4.05;;
78686;SDS011;68002;52.310;6.990;2023-09-08T08:05:40;7.03;;;4.47;;
78686;SDS011;68002;52.310;6.990;2023-09-08T08:08:05;5.57;;;4.13;;
78686;SDS011;68002;52.310;6.990;2023-09-08T08:10:30;6.10;;;3.75;;
78686;SDS011;68002;52.310;6.990;2023-09-08T08:12:55;6.65;;;4.80;;
78686;SDS011;68002;52.310;6.990;2023-09-08T08:15:21;7.57;;;4.28;;
78686;SDS011;68002;52.310;6.990;2023-09-08T08:17:46;5.13;;;3.83;;
78686;SDS011;68002;52.310;6.990;2023-09-08T08:20:11;6.13;;;4.05;;
78686;SDS011;68002;52.310;6.990;2023-09-08T08:22:36;4.90;;;3.92;;
78686;SDS011;68002;52.310;6.990;2023-09-08T08:25:02;5.97;;;4.10;;
78686;SDS011;68002;52.310;6.990;2023-09-08T08:27:27;4.60;;;3.33;;
78686;SDS011;68002;52.310;6.990;2023-09-08T08:29:52;4.78;;;3.90;;
78686;SDS011;68002;52.310;6.990;2023-09-08T08:32:17;4.85;;;4.00;;
78686;SDS011;68002;52.310;6.990;2023-09-08T08:34:42;4.77;;;3.57;;
78686;SDS011;68002;52.310;6.990;2023-09-08T08:37:07;6.53;;;3.87;;
78686;SDS011;68002;52.310;6.990;2023-09-08T08:39:32;5.77;;;3.83;;
78686;SDS011;68002;52.310;6.990;2023-09-08T08:41:58;4.72;;;4.03;;
78686;SDS011;68002;52.310;6.990;2023-09-08T08:44:23;5.10;;;3.63;;
78686;SDS011;68002;52.310;6.990;2023-09-08T08:46:48;5.90;;;4.68;;
78686;SDS011;68002;52.310;6.990;2023-09-08T08:49:14;4.87;;;3.77;;
78686;SDS011;68002;52.310;6.990;2023-09-08T08:51:39;5.40;;;3.80;;
78686;SDS011;68002;52.310;6.990;2023-09-08T08:54:07;4.18;;;3.63;;
78686;SDS011;68002;52.310;6.990;2023-09-08T08:56:32;4.80;;;3.40;;
78686;SDS011;68002;52.310;6.990;2023-09-08T08:58:57;4.37;;;3.70;;
78686;SDS011;68002;52.310;6.990;2023-09-08T09:01:23;5.53;;;4.00;;
78686;SDS011;68002;52.310;6.990;2023-09-08T09:03:49;7.63;;;4.15;;
78686;SDS011;68002;52.310;6.990;2023-09-08T09:06:15;7.40;;;4.23;;
78686;SDS011;68002;52.310;6.990;2023-09-08T09:08:40;4.68;;;4.10;;
78686;SDS011;68002;52.310;6.990;2023-09-08T09:11:05;5.30;;;3.30;;
78686;SDS011;68002;52.310;6.990;2023-09-08T09:13:30;4.95;;;3.58;;
78686;SDS011;68002;52.310;6.990;2023-09-08T09:15:59;4.85;;;4.32;;
78686;SDS011;68002;52.310;6.990;2023-09-08T09:18:24;4.72;;;4.03;;
78686;SDS011;68002;52.310;6.990;2023-09-08T09:20:53;5.47;;;3.63;;
78686;SDS011;68002;52.310;6.990;2023-09-08T09:25:43;4.57;;;4.10;;
78686;SDS011;68002;52.310;6.990;2023-09-08T09:28:08;5.95;;;4.57;;
78686;SDS011;68002;52.310;6.990;2023-09-08T09:30:48;5.22;;;4.10;;
78686;SDS011;68002;52.310;6.990;2023-09-08T09:33:14;4.72;;;4.00;;
78686;SDS011;68002;52.310;6.990;2023-09-08T09:35:43;5.00;;;3.77;;
78686;SDS011;68002;52.310;6.990;2023-09-08T09:38:09;4.03;;;3.63;;
78686;SDS011;68002;52.310;6.990;2023-09-08T09:40:34;4.03;;;3.43;;
78686;SDS011;68002;52.310;6.990;2023-09-08T09:42:59;5.82;;;4.38;;
78686;SDS011;68002;52.310;6.990;2023-09-08T09:45:25;6.60;;;4.55;;
78686;SDS011;68002;52.310;6.990;2023-09-08T09:47:50;5.82;;;4.20;;
78686;SDS011;68002;52.310;6.990;2023-09-08T09:50:17;6.03;;;4.77;;
78686;SDS011;68002;52.310;6.990;2023-09-08T09:52:51;6.70;;;4.50;;
78686;SDS011;68002;52.310;6.990;2023-09-08T09:55:20;6.05;;;3.70;;
78686;SDS011;68002;52.310;6.990;2023-09-08T09:57:45;4.97;;;3.22;;
78686;SDS011;68002;52.310;6.990;2023-09-08T10:00:11;4.85;;;4.20;;
78686;SDS011;68002;52.310;6.990;2023-09-08T10:02:36;4.15;;;3.67;;
78686;SDS011;68002;52.310;6.990;2023-09-08T10:05:10;7.15;;;4.55;;
78686;SDS011;68002;52.310;6.990;2023-09-08T10:07:35;4.18;;;3.22;;
78686;SDS011;68002;52.310;6.990;2023-09-08T10:10:00;5.13;;;4.60;;
78686;SDS011;68002;52.310;6.990;2023-09-08T10:12:25;4.50;;;3.95;;
78686;SDS011;68002;52.310;6.990;2023-09-08T10:14:50;5.32;;;4.07;;
78686;SDS011;68002;52.310;6.990;2023-09-08T10:17:18;5.82;;;4.15;;
78686;SDS011;68002;52.310;6.990;2023-09-08T10:19:45;5.50;;;4.90;;
78686;SDS011;68002;52.310;6.990;2023-09-08T10:22:11;4.57;;;4.18;;
78686;SDS011;68002;52.310;6.990;2023-09-08T10:24:36;4.70;;;4.22;;
78686;SDS011;68002;52.310;6.990;2023-09-08T10:27:04;5.95;;;3.88;;
78686;SDS011;68002;52.310;6.990;2023-09-08T10:29:32;5.97;;;3.92;;
78686;SDS011;68002;52.310;6.990;2023-09-08T10:31:57;5.30;;;3.90;;
78686;SDS011;68002;52.310;6.990;2023-09-08T10:34:23;4.97;;;3.57;;
78686;SDS011;68002;52.310;6.990;2023-09-08T10:36:49;4.72;;;4.00;;
78686;SDS011;68002;52.310;6.990;2023-09-08T10:39:26;4.70;;;3.92;;
78686;SDS011;68002;52.310;6.990;2023-09-08T10:41:52;4.68;;;4.20;;
78686;SDS011;68002;52.310;6.990;2023-09-08T10:44:38;4.88;;;4.03;;
78686;SDS011;68002;52.310;6.990;2023-09-08T10:47:03;5.15;;;4.65;;
78686;SDS011;68002;52.310;6.990;2023-09-08T10:49:28;4.85;;;3.90;;
78686;SDS011;68002;52.310;6.990;2023-09-08T10:52:07;4.03;;;3.17;;
78686;SDS011;68002;52.310;6.990;2023-09-08T10:54:45;4.60;;;4.18;;
78686;SDS011;68002;52.310;6.990;2023-09-08T10:57:15;4.07;;;3.08;;
78686;SDS011;68002;52.310;6.990;2023-09-08T11:02:40;4.47;;;4.07;;
78686;SDS011;68002;52.310;6.990;2023-09-08T11:05:15;4.32;;;3.92;;
78686;SDS011;68002;52.310;6.990;2023-09-08T11:07:40;4.10;;;3.70;;
78686;SDS011;68002;52.310;6.990;2023-09-08T11:10:07;4.80;;;4.40;;
78686;SDS011;68002;52.310;6.990;2023-09-08T11:12:32;5.55;;;3.47;;
78686;SDS011;68002;52.310;6.990;2023-09-08T11:15:05;4.63;;;4.10;;
78686;SDS011;68002;52.310;6.990;2023-09-08T11:17:31;5.45;;;4.45;;
78686;SDS011;68002;52.310;6.990;2023-09-08T11:19:56;4.30;;;3.90;;
78686;SDS011;68002;52.310;6.990;2023-09-08T11:22:24;4.00;;;3.60;;
78686;SDS011;68002;52.310;6.990;2023-09-08T11:24:50;4.38;;;3.97;;
78686;SDS011;68002;52.310;6.990;2023-09-08T11:27:15;4.65;;;4.25;;
78686;SDS011;68002;52.310;6.990;2023-09-08T11:29:40;4.25;;;3.85;;
78686;SDS011;68002;52.310;6.990;2023-09-08T11:32:08;4.57;;;4.18;;
78686;SDS011;68002;52.310;6.990;2023-09-08T11:34:37;4.50;;;3.92;;
78686;SDS011;68002;52.310;6.990;2023-09-08T11:37:12;4.65;;;3.75;;
78686;SDS011;68002;52.310;6.990;2023-09-08T11:39:38;4.78;;;4.18;;
78686;SDS011;68002;52.310;6.990;2023-09-08T11:42:03;5.07;;;3.95;;
78686;SDS011;68002;52.310;6.990;2023-09-08T11:44:28;5.73;;;5.10;;
78686;SDS011;68002;52.310;6.990;2023-09-08T11:46:53;4.77;;;4.17;;
78686;SDS011;68002;52.310;6.990;2023-09-08T11:49:19;5.20;;;4.45;;
78686;SDS011;68002;52.310;6.990;2023-09-08T11:51:44;4.90;;;4.18;;
78686;SDS011;68002;52.310;6.990;2023-09-08T11:54:09;5.00;;;4.03;;
78686;SDS011;68002;52.310;6.990;2023-09-08T11:56:35;4.90;;;4.43;;
78686;SDS011;68002;52.310;6.990;2023-09-08T11:59:01;4.50;;;3.07;;
78686;SDS011;68002;52.310;6.990;2023-09-08T12:01:26;4.53;;;3.58;;
78686;SDS011;68002;52.310;6.990;2023-09-08T12:03:52;4.38;;;3.47;;
78686;SDS011;68002;52.310;6.990;2023-09-08T12:06:17;4.05;;;3.63;;
78686;SDS011;68002;52.310;6.990;2023-09-08T12:08:42;5.00;;;4.50;;
78686;SDS011;68002;52.310;6.990;2023-09-08T12:11:07;5.60;;;4.65;;
78686;SDS011;68002;52.310;6.990;2023-09-08T12:13:32;5.47;;;4.43;;
78686;SDS011;68002;52.310;6.990;2023-09-08T12:15:57;4.80;;;4.35;;
78686;SDS011;68002;52.310;6.990;2023-09-08T12:18:37;5.13;;;4.67;;
78686;SDS011;68002;52.310;6.990;2023-09-08T12:21:03;5.00;;;4.50;;
78686;SDS011;68002;52.310;6.990;2023-09-08T12:23:28;7.82;;;4.65;;
78686;SDS011;68002;52.310;6.990;2023-09-08T12:25:53;4.90;;;4.43;;
78686;SDS011;68002;52.310;6.990;2023-09-08T12:28:19;4.65;;;4.22;;
78686;SDS011;68002;52.310;6.990;2023-09-08T12:30:44;4.18;;;3.65;;
78686;SDS011;68002;52.310;6.990;2023-09-08T12:33:09;4.82;;;4.28;;
78686;SDS011;68002;52.310;6.990;2023-09-08T12:35:34;5.17;;;4.67;;
78686;SDS011;68002;52.310;6.990;2023-09-08T12:38:00;5.78;;;5.00;;
78686;SDS011;68002;52.310;6.990;2023-09-08T12:40:26;6.75;;;4.35;;
78686;SDS011;68002;52.310;6.990;2023-09-08T12:42:51;4.38;;;3.97;;
78686;SDS011;68002;52.310;6.990;2023-09-08T12:45:17;4.83;;;4.33;;
78686;SDS011;68002;52.310;6.990;2023-09-08T12:47:42;4.70;;;4.30;;
78686;SDS011;68002;52.310;6.990;2023-09-08T12:50:07;5.03;;;3.45;;
78686;SDS011;68002;52.310;6.990;2023-09-08T12:52:33;4.77;;;4.37;;
78686;SDS011;68002;52.310;6.990;2023-09-08T12:54:58;4.78;;;3.67;;
78686;SDS011;68002;52.310;6.990;2023-09-08T12:57:23;5.10;;;4.15;;
78686;SDS011;68002;52.310;6.990;2023-09-08T12:59:48;4.72;;;4.07;;
78686;SDS011;68002;52.310;6.990;2023-09-08T13:02:13;3.85;;;3.45;;
78686;SDS011;68002;52.310;6.990;2023-09-08T13:04:38;5.13;;;4.50;;
78686;SDS011;68002;52.310;6.990;2023-09-08T13:07:03;4.30;;;3.70;;
78686;SDS011;68002;52.310;6.990;2023-09-08T13:09:28;4.53;;;4.10;;
78686;SDS011;68002;52.310;6.990;2023-09-08T13:11:54;5.72;;;3.97;;
78686;SDS011;68002;52.310;6.990;2023-09-08T13:14:19;4.35;;;3.78;;
78686;SDS011;68002;52.310;6.990;2023-09-08T13:16:44;6.03;;;4.22;;
78686;SDS011;68002;52.310;6.990;2023-09-08T13:19:09;4.68;;;4.10;;
78686;SDS011;68002;52.310;6.990;2023-09-08T13:21:34;6.60;;;4.00;;
78686;SDS011;68002;52.310;6.990;2023-09-08T13:23:59;5.63;;;5.00;;
78686;SDS011;68002;52.310;6.990;2023-09-08T13:26:24;5.50;;;4.00;;
78686;SDS011;68002;52.310;6.990;2023-09-08T13:28:49;4.80;;;3.58;;
78686;SDS011;68002;52.310;6.990;2023-09-08T13:31:14;5.90;;;3.35;;
78686;SDS011;68002;52.310;6.990;2023-09-08T13:33:40;4.70;;;3.78;;
78686;SDS011;68002;52.310;6.990;2023-09-08T13:36:05;5.82;;;4.38;;
78686;SDS011;68002;52.310;6.990;2023-09-08T13:38:30;5.03;;;3.73;;
78686;SDS011;68002;52.310;6.990;2023-09-08T13:40:55;5.40;;;4.63;;
78686;SDS011;68002;52.310;6.990;2023-09-08T13:43:20;5.43;;;4.60;;
78686;SDS011;68002;52.310;6.990;2023-09-08T13:45:45;5.88;;;4.60;;
78686;SDS011;68002;52.310;6.990;2023-09-08T13:48:10;4.28;;;3.88;;
78686;SDS011;68002;52.310;6.990;2023-09-08T13:50:37;5.03;;;3.67;;
78686;SDS011;68002;52.310;6.990;2023-09-08T13:53:02;4.88;;;3.92;;
78686;SDS011;68002;52.310;6.990;2023-09-08T13:55:27;4.70;;;3.80;;
78686;SDS011;68002;52.310;6.990;2023-09-08T13:57:52;4.75;;;3.97;;
78686;SDS011;68002;52.310;6.990;2023-09-08T14:00:18;5.88;;;4.13;;
78686;SDS011;68002;52.310;6.990;2023-09-08T14:02:46;4.90;;;3.93;;
78686;SDS011;68002;52.310;6.990;2023-09-08T14:05:11;4.93;;;3.67;;
78686;SDS011;68002;52.310;6.990;2023-09-08T14:07:36;5.25;;;4.15;;
78686;SDS011;68002;52.310;6.990;2023-09-08T14:10:01;5.00;;;4.20;;
78686;SDS011;68002;52.310;6.990;2023-09-08T14:12:27;4.50;;;3.85;;
78686;SDS011;68002;52.310;6.990;2023-09-08T14:14:52;4.43;;;3.88;;
78686;SDS011;68002;52.310;6.990;2023-09-08T14:17:17;7.70;;;4.53;;
78686;SDS011;68002;52.310;6.990;2023-09-08T14:19:42;5.13;;;4.25;;
78686;SDS011;68002;52.310;6.990;2023-09-08T14:22:07;4.97;;;3.92;;
78686;SDS011;68002;52.310;6.990;2023-09-08T14:24:32;6.53;;;4.00;;
78686;SDS011;68002;52.310;6.990;2023-09-08T14:26:58;5.13;;;4.00;;
78686;SDS011;68002;52.310;6.990;2023-09-08T14:29:23;5.03;;;3.85;;
78686;SDS011;68002;52.310;6.990;2023-09-08T14:31:48;4.90;;;4.50;;
78686;SDS011;68002;52.310;6.990;2023-09-08T14:34:13;4.53;;;3.60;;
78686;SDS011;68002;52.310;6.990;2023-09-08T14:36:38;6.07;;;4.47;;
78686;SDS011;68002;52.310;6.990;2023-09-08T14:39:04;4.28;;;3.60;;
78686;SDS011;68002;52.310;6.990;2023-09-08T14:41:29;6.00;;;3.53;;
78686;SDS011;68002;52.310;6.990;2023-09-08T14:43:54;4.93;;;4.43;;